createdAt,value
2022-12-09T00:02:19.165Z,108.43
2022-12-09T00:04:46.122Z,108.85
2022-12-09T00:07:12.886Z,63.42
2022-12-09T00:09:39.899Z,54.85
2022-12-09T00:12:06.697Z,56.03
2022-12-09T00:14:33.313Z,53.20
2022-12-09T00:17:00.393Z,51.28
2022-12-09T00:19:27.236Z,44.80
2022-12-09T00:21:53.931Z,55.65
2022-12-09T00:24:20.522Z,61.78
2022-12-09T00:26:47.356Z,73.05
2022-12-09T00:29:14.245Z,67.60
2022-12-09T00:31:41.156Z,71.05
2022-12-09T00:34:12.014Z,66.10
2022-12-09T00:36:39.461Z,76.30
2022-12-09T00:39:06.088Z,79.03
2022-12-09T00:41:33.077Z,91.80
2022-12-09T00:43:59.874Z,82.03
2022-12-09T00:46:26.938Z,73.60
2022-12-09T00:48:53.740Z,81.22
2022-12-09T00:51:23.686Z,66.25
2022-12-09T00:53:54.676Z,61.63
2022-12-09T00:56:23.000Z,65.43
2022-12-09T00:58:49.631Z,53.30
2022-12-09T01:01:16.348Z,59.40
2022-12-09T01:03:43.400Z,46.92
2022-12-09T01:06:12.267Z,49.22
2022-12-09T01:08:39.669Z,54.95
2022-12-09T01:11:17.380Z,48.08
2022-12-09T01:13:46.117Z,44.47
2022-12-09T01:16:24.898Z,48.00
2022-12-09T01:18:54.065Z,46.28
2022-12-09T01:21:21.268Z,47.33
2022-12-09T01:23:48.049Z,41.22
2022-12-09T01:26:14.872Z,43.42
2022-12-09T01:28:41.597Z,45.70
2022-12-09T01:31:17.882Z,49.70
2022-12-09T01:33:44.885Z,44.25
2022-12-09T01:36:15.735Z,50.10
2022-12-09T01:38:43.110Z,63.30
2022-12-09T01:41:09.690Z,71.05
2022-12-09T01:43:38.832Z,96.60
2022-12-09T01:46:06.274Z,112.03
2022-12-09T01:48:44.026Z,105.88
2022-12-09T01:51:16.889Z,106.13
2022-12-09T01:53:48.344Z,110.00
2022-12-09T01:56:35.982Z,87.32
2022-12-09T01:59:08.265Z,99.53
2022-12-09T02:01:35.157Z,108.28
2022-12-09T02:04:03.072Z,99.20
2022-12-09T02:06:29.981Z,128.98
2022-12-09T02:08:58.040Z,129.73
2022-12-09T02:12:06.164Z,132.63
2022-12-09T02:14:40.378Z,141.75
2022-12-09T02:17:22.176Z,135.60
2022-12-09T02:20:01.470Z,136.07
2022-12-09T02:22:42.275Z,138.15
2022-12-09T02:25:25.122Z,135.75
2022-12-09T02:28:10.249Z,138.88
2022-12-09T02:30:52.929Z,132.20
2022-12-09T02:33:33.334Z,138.68
2022-12-09T02:36:09.273Z,136.20
2022-12-09T02:38:40.983Z,141.43
2022-12-09T02:41:19.617Z,137.30
2022-12-09T02:43:53.808Z,146.68
2022-12-09T02:46:26.608Z,131.27
2022-12-09T02:48:58.547Z,130.02
2022-12-09T02:51:29.293Z,124.43
2022-12-09T02:54:07.479Z,108.88
2022-12-09T02:56:35.793Z,112.65
2022-12-09T02:59:03.595Z,107.97
2022-12-09T03:01:46.760Z,100.25
2022-12-09T03:04:20.228Z,99.60
2022-12-09T03:06:53.086Z,90.82
2022-12-09T03:09:25.807Z,79.32
2022-12-09T03:11:55.058Z,76.40
2022-12-09T03:14:45.408Z,70.55
2022-12-09T03:17:20.284Z,97.40
2022-12-09T03:19:55.424Z,87.85
2022-12-09T03:22:28.160Z,82.88
2022-12-09T03:25:06.976Z,87.47
2022-12-09T03:27:58.539Z,93.68
2022-12-09T03:30:25.408Z,94.85
2022-12-09T03:32:55.750Z,88.85
2022-12-09T03:35:29.144Z,90.20
2022-12-09T03:37:57.623Z,92.75
2022-12-09T03:40:27.840Z,98.88
2022-12-09T03:43:05.947Z,110.63
2022-12-09T03:45:33.260Z,142.82
2022-12-09T03:48:01.591Z,143.73
2022-12-09T03:50:34.503Z,156.05
2022-12-09T03:53:14.196Z,150.10
2022-12-09T03:55:53.326Z,148.88
2022-12-09T03:58:20.738Z,140.38
2022-12-09T04:00:49.320Z,143.38
2022-12-09T04:03:19.034Z,131.15
2022-12-09T04:05:45.774Z,134.45
2022-12-09T04:08:12.947Z,128.98
2022-12-09T04:10:39.679Z,108.10
2022-12-09T04:13:06.793Z,113.30
2022-12-09T04:15:33.485Z,93.60
2022-12-09T04:18:00.552Z,111.18
2022-12-09T04:20:27.426Z,82.07
2022-12-09T04:22:55.614Z,82.93
2022-12-09T04:25:22.314Z,86.57
2022-12-09T04:27:49.499Z,79.95
2022-12-09T04:30:17.131Z,56.05
2022-12-09T04:32:44.152Z,64.82
2022-12-09T04:35:11.320Z,65.10
2022-12-09T04:37:38.119Z,56.25
2022-12-09T04:40:06.650Z,55.08
2022-12-09T04:42:33.993Z,50.65
2022-12-09T04:45:00.946Z,50.40
2022-12-09T04:47:27.927Z,43.72
2022-12-09T04:49:54.898Z,48.30
2022-12-09T04:52:21.678Z,48.20
2022-12-09T04:54:51.058Z,46.63
2022-12-09T04:57:18.587Z,52.65
2022-12-09T04:59:45.811Z,47.97
2022-12-09T05:02:12.832Z,49.60
2022-12-09T05:04:39.624Z,56.97
2022-12-09T05:07:06.439Z,65.43
2022-12-09T05:09:34.437Z,89.38
2022-12-09T05:12:01.217Z,85.97
2022-12-09T05:14:28.631Z,99.43
2022-12-09T05:16:55.432Z,83.97
2022-12-09T05:19:22.271Z,91.60
2022-12-09T05:21:49.318Z,105.88
2022-12-09T05:24:16.262Z,104.60
2022-12-09T05:26:43.475Z,107.70
2022-12-09T05:29:10.556Z,85.30
2022-12-09T05:31:37.719Z,96.32
2022-12-09T05:34:04.804Z,99.10
2022-12-09T05:36:31.823Z,99.10
2022-12-09T05:38:58.685Z,145.45
2022-12-09T05:41:27.913Z,98.70
2022-12-09T05:43:54.832Z,110.65
2022-12-09T05:46:22.355Z,116.15
2022-12-09T05:48:49.134Z,105.80
2022-12-09T05:51:22.568Z,88.03
2022-12-09T05:53:49.331Z,105.60
2022-12-09T05:56:17.884Z,103.68
2022-12-09T05:58:47.618Z,131.20
2022-12-09T06:01:15.594Z,130.55
2022-12-09T06:03:43.167Z,109.78
2022-12-09T06:06:13.588Z,119.55
2022-12-09T06:08:42.095Z,128.18
2022-12-09T06:11:12.817Z,170.38
2022-12-09T06:13:40.014Z,238.98
2022-12-09T06:16:07.719Z,373.02
2022-12-09T06:18:36.125Z,227.57
2022-12-09T06:21:08.113Z,474.77
2022-12-09T06:23:37.273Z,294.65
2022-12-09T06:26:04.942Z,316.75
2022-12-09T06:28:32.134Z,250.40
2022-12-09T06:30:59.348Z,462.90
2022-12-09T06:33:53.053Z,394.65
2022-12-09T06:36:13.799Z,142.93
2022-12-09T06:38:40.726Z,98.22
2022-12-09T06:41:12.387Z,101.75
2022-12-09T06:43:40.142Z,291.65
2022-12-09T06:46:14.645Z,367.50
2022-12-09T06:48:41.906Z,183.07
2022-12-09T06:51:08.914Z,109.03
2022-12-09T06:53:36.056Z,306.67
2022-12-09T06:56:11.154Z,221.85
2022-12-09T06:58:39.190Z,178.23
2022-12-09T07:01:07.904Z,157.00
2022-12-09T07:03:34.993Z,182.95
2022-12-09T07:06:03.511Z,146.93
2022-12-09T07:08:30.782Z,126.63
2022-12-09T07:10:58.038Z,138.65
2022-12-09T07:13:25.327Z,190.70
2022-12-09T07:15:52.273Z,202.20
2022-12-09T07:18:19.361Z,210.80
2022-12-09T07:20:46.495Z,211.35
2022-12-09T07:23:13.759Z,156.13
2022-12-09T07:25:43.427Z,179.85
2022-12-09T07:28:10.340Z,179.70
2022-12-09T07:30:37.995Z,191.13
2022-12-09T07:33:04.838Z,196.48
2022-12-09T07:35:31.591Z,203.65
2022-12-09T07:37:58.657Z,246.18
2022-12-09T07:40:27.142Z,263.10
2022-12-09T07:42:59.146Z,206.40
2022-12-09T07:45:26.909Z,242.50
2022-12-09T07:47:53.790Z,199.60
2022-12-09T07:50:21.035Z,192.25
2022-12-09T07:52:47.612Z,175.57
2022-12-09T07:55:15.068Z,184.73
2022-12-09T07:57:42.469Z,224.25
2022-12-09T08:00:10.089Z,227.02
2022-12-09T08:02:39.692Z,212.63
2022-12-09T08:05:08.634Z,178.00
2022-12-09T08:07:40.181Z,179.77
2022-12-09T08:10:13.366Z,164.20
2022-12-09T08:12:40.708Z,164.82
2022-12-09T08:15:08.101Z,157.57
2022-12-09T08:17:35.208Z,154.52
2022-12-09T08:20:02.416Z,159.38
2022-12-09T08:22:29.760Z,152.48
2022-12-09T08:24:58.073Z,137.40
2022-12-09T08:27:24.912Z,191.90
2022-12-09T08:29:51.633Z,204.38
2022-12-09T08:32:18.710Z,272.90
2022-12-09T08:34:45.893Z,386.25
2022-12-09T08:37:12.762Z,382.70
2022-12-09T08:39:41.843Z,285.20
2022-12-09T08:42:08.600Z,176.98
2022-12-09T08:44:37.561Z,142.68
2022-12-09T08:47:05.081Z,183.20
2022-12-09T08:49:32.443Z,162.13
2022-12-09T08:52:01.900Z,176.82
2022-12-09T08:54:28.815Z,143.20
2022-12-09T08:56:57.051Z,134.68
2022-12-09T08:59:24.695Z,151.30
2022-12-09T09:01:51.815Z,149.65
2022-12-09T09:04:20.897Z,161.70
2022-12-09T09:06:50.819Z,166.70
2022-12-09T09:09:22.302Z,150.70
2022-12-09T09:11:50.280Z,144.25
2022-12-09T09:14:17.438Z,143.07
2022-12-09T09:16:45.362Z,127.28
2022-12-09T09:19:18.589Z,131.25
2022-12-09T09:21:45.767Z,133.52
2022-12-09T09:24:16.813Z,135.18
2022-12-09T09:26:46.964Z,135.00
2022-12-09T09:29:15.980Z,134.25
2022-12-09T09:31:43.339Z,116.03
2022-12-09T09:34:11.319Z,123.60
2022-12-09T09:36:39.675Z,122.35
2022-12-09T09:39:06.849Z,107.20
2022-12-09T09:41:53.938Z,110.78
2022-12-09T09:44:38.063Z,125.13
2022-12-09T09:49:50.214Z,104.43
2022-12-09T09:52:20.496Z,91.70
2022-12-09T09:54:47.395Z,85.32
2022-12-09T09:57:34.757Z,75.65
2022-12-09T10:00:26.994Z,84.45
2022-12-09T10:03:09.544Z,72.15
2022-12-09T10:05:56.338Z,76.22
2022-12-09T10:08:59.329Z,72.13
2022-12-09T10:11:37.553Z,72.35
2022-12-09T10:14:15.410Z,61.38
2022-12-09T10:16:59.428Z,61.13
2022-12-09T10:21:54.719Z,82.55
2022-12-09T10:24:39.245Z,74.95
2022-12-09T10:27:16.646Z,80.28
2022-12-09T10:29:52.915Z,80.35
2022-12-09T10:32:22.237Z,76.47
2022-12-09T10:34:49.092Z,72.70
2022-12-09T10:37:25.233Z,78.85
2022-12-09T10:40:04.143Z,67.82
2022-12-09T10:42:56.308Z,86.25
2022-12-09T10:45:23.117Z,66.50
2022-12-09T10:47:53.054Z,65.82
2022-12-09T10:50:34.189Z,64.43
2022-12-09T10:53:12.110Z,79.45
2022-12-09T10:55:43.388Z,67.07
2022-12-09T10:58:31.805Z,61.28
2022-12-09T11:01:04.508Z,58.58
2022-12-09T11:03:51.601Z,63.53
2022-12-09T11:06:51.663Z,61.83
2022-12-09T11:09:31.241Z,64.57
2022-12-09T11:12:02.235Z,63.63
2022-12-09T11:14:39.763Z,63.35
2022-12-09T11:17:28.394Z,58.20
2022-12-09T11:20:12.077Z,58.90
2022-12-09T11:22:42.305Z,59.13
2022-12-09T11:25:21.022Z,63.70
2022-12-09T11:27:56.316Z,62.47
2022-12-09T11:31:20.058Z,66.78
2022-12-09T11:33:47.608Z,56.25
2022-12-09T11:36:32.591Z,49.78
2022-12-09T11:39:12.102Z,47.08
2022-12-09T11:42:05.272Z,58.70
2022-12-09T11:44:33.931Z,61.85
2022-12-09T11:47:05.476Z,51.53
2022-12-09T11:49:36.743Z,38.58
2022-12-09T11:52:05.620Z,34.33
2022-12-09T11:54:38.835Z,41.30
2022-12-09T11:57:12.227Z,39.95
2022-12-09T11:59:50.720Z,31.92
2022-12-09T12:02:35.172Z,38.38
2022-12-09T12:05:27.815Z,43.13
2022-12-09T12:10:40.149Z,46.50
2022-12-09T12:13:12.174Z,48.22
2022-12-09T12:16:08.699Z,41.95
2022-12-09T12:19:13.305Z,36.63
2022-12-09T12:21:39.898Z,33.50
2022-12-09T12:24:24.851Z,34.88
2022-12-09T12:27:00.159Z,52.97
2022-12-09T12:29:40.814Z,52.85
2022-12-09T12:32:13.618Z,50.75
2022-12-09T12:34:52.251Z,46.33
2022-12-09T12:37:35.341Z,54.03
2022-12-09T12:40:11.176Z,52.72
2022-12-09T12:43:24.270Z,57.83
2022-12-09T12:49:28.872Z,56.85
2022-12-09T12:52:54.343Z,63.28
2022-12-09T12:55:26.519Z,63.47
2022-12-09T12:58:19.509Z,185.80
2022-12-09T13:01:02.347Z,463.15
2022-12-09T13:03:47.783Z,160.48
2022-12-09T13:06:18.564Z,172.50
2022-12-09T13:09:02.872Z,107.90
2022-12-09T13:12:02.995Z,59.38
2022-12-09T13:14:52.186Z,54.10
2022-12-09T13:17:24.051Z,62.30
2022-12-09T13:19:54.786Z,53.35
2022-12-09T13:22:32.695Z,55.15
2022-12-09T13:25:00.419Z,56.58
2022-12-09T13:27:37.906Z,49.15
2022-12-09T13:30:13.299Z,46.90
2022-12-09T13:33:03.958Z,46.03
2022-12-09T13:35:57.807Z,42.05
2022-12-09T13:38:39.819Z,48.47
2022-12-09T13:41:31.345Z,42.58
2022-12-09T13:44:11.414Z,43.90
2022-12-09T13:46:38.689Z,39.97
2022-12-09T13:49:29.623Z,43.33
2022-12-09T13:51:56.223Z,37.63
2022-12-09T13:54:28.620Z,40.42
2022-12-09T13:57:49.707Z,41.63
2022-12-09T14:00:18.438Z,47.03
2022-12-09T14:03:37.395Z,40.80
2022-12-09T14:06:18.606Z,50.40
2022-12-09T14:08:50.696Z,52.22
2022-12-09T14:11:44.171Z,57.88
2022-12-09T14:14:22.806Z,53.88
2022-12-09T14:16:56.073Z,60.70
2022-12-09T14:19:25.637Z,57.10
2022-12-09T14:22:17.046Z,59.63
2022-12-09T14:24:54.296Z,56.22
2022-12-09T14:27:32.976Z,60.50
2022-12-09T14:30:00.890Z,67.32
2022-12-09T14:32:49.342Z,59.88
2022-12-09T14:35:15.964Z,60.58
2022-12-09T14:37:45.346Z,67.03
2022-12-09T14:40:14.705Z,58.05
2022-12-09T14:42:55.535Z,65.90
2022-12-09T14:45:29.904Z,50.45
2022-12-09T14:47:56.860Z,48.95
2022-12-09T14:50:27.522Z,57.22
2022-12-09T14:52:55.915Z,59.40
2022-12-09T14:55:24.836Z,63.60
2022-12-09T14:57:54.317Z,56.03
2022-12-09T15:00:31.466Z,51.22
2022-12-09T15:03:30.662Z,47.08
2022-12-09T15:06:05.349Z,64.97
2022-12-09T15:08:35.947Z,39.00
2022-12-09T15:11:11.901Z,39.03
2022-12-09T15:13:42.111Z,38.75
2022-12-09T15:16:15.298Z,38.25
2022-12-09T15:18:45.057Z,39.88
2022-12-09T15:21:27.027Z,45.10
2022-12-09T15:23:54.670Z,45.92
2022-12-09T15:26:24.538Z,32.90
2022-12-09T15:28:53.388Z,25.27
2022-12-09T15:31:23.293Z,31.20
2022-12-09T15:36:15.890Z,28.77
2022-12-09T15:41:30.814Z,31.15
2022-12-09T15:44:02.308Z,32.85
2022-12-09T15:46:31.423Z,37.03
2022-12-09T15:49:01.939Z,34.25
2022-12-09T15:51:29.447Z,37.80
2022-12-09T15:54:06.435Z,35.47
2022-12-09T15:56:39.739Z,38.42
2022-12-09T15:59:12.265Z,38.20
2022-12-09T16:01:39.150Z,35.67
2022-12-09T16:04:08.735Z,41.67
2022-12-09T16:06:37.630Z,41.88
2022-12-09T16:09:13.470Z,44.00
2022-12-09T16:11:49.420Z,45.45
2022-12-09T16:14:17.702Z,46.85
2022-12-09T16:16:50.248Z,50.13
2022-12-09T16:19:24.583Z,54.03
2022-12-09T16:21:57.527Z,50.85
2022-12-09T16:24:24.466Z,53.58
2022-12-09T16:26:53.602Z,63.80
2022-12-09T16:29:31.770Z,50.40
2022-12-09T16:32:34.168Z,57.13
2022-12-09T16:35:19.766Z,58.13
2022-12-09T16:37:58.593Z,56.00
2022-12-09T16:40:25.303Z,78.70
2022-12-09T16:43:15.143Z,62.60
2022-12-09T16:45:48.308Z,66.07
2022-12-09T16:48:17.047Z,96.72
2022-12-09T16:50:51.203Z,79.65
2022-12-09T16:53:24.105Z,76.13
2022-12-09T16:55:57.329Z,84.40
2022-12-09T16:58:24.017Z,78.82
2022-12-09T17:00:50.824Z,74.93
2022-12-09T17:03:39.986Z,73.45
2022-12-09T17:06:09.494Z,70.15
2022-12-09T17:08:37.828Z,72.78
2022-12-09T17:11:04.543Z,62.70
2022-12-09T17:13:31.073Z,68.95
2022-12-09T17:16:01.746Z,72.22
2022-12-09T17:18:29.430Z,65.43
2022-12-09T17:21:07.653Z,74.68
2022-12-09T17:23:39.565Z,68.65
2022-12-09T17:26:09.404Z,75.15
2022-12-09T17:28:36.837Z,71.47
2022-12-09T17:31:10.673Z,85.90
2022-12-09T17:33:37.568Z,67.90
2022-12-09T17:36:05.083Z,89.43
2022-12-09T17:38:31.733Z,83.38
2022-12-09T17:41:04.207Z,93.50
2022-12-09T17:43:30.896Z,78.15
2022-12-09T17:46:05.066Z,84.95
2022-12-09T17:48:33.256Z,84.07
2022-12-09T17:51:06.626Z,84.28
2022-12-09T17:53:39.186Z,88.05
2022-12-09T17:56:14.820Z,91.88
2022-12-09T17:58:42.743Z,84.55
2022-12-09T18:01:17.631Z,86.43
2022-12-09T18:04:06.255Z,75.43
2022-12-09T18:06:34.053Z,78.07
2022-12-09T18:09:01.791Z,83.13
2022-12-09T18:11:28.812Z,72.30
2022-12-09T18:13:55.405Z,71.80
2022-12-09T18:16:22.082Z,71.32
2022-12-09T18:18:50.272Z,60.97
2022-12-09T18:21:19.771Z,58.80
2022-12-09T18:23:46.694Z,62.38
2022-12-09T18:26:17.516Z,66.05
2022-12-09T18:28:44.492Z,72.28
2022-12-09T18:31:13.541Z,75.00
2022-12-09T18:33:40.724Z,70.97
2022-12-09T18:36:10.360Z,73.47
2022-12-09T18:38:37.824Z,71.30
2022-12-09T18:41:05.598Z,80.22
2022-12-09T18:43:36.318Z,67.97
2022-12-09T18:46:12.750Z,72.30
2022-12-09T18:48:40.040Z,79.18
2022-12-09T18:51:13.516Z,65.55
2022-12-09T18:53:40.863Z,65.13
2022-12-09T18:56:07.851Z,66.82
2022-12-09T18:58:57.890Z,60.55
2022-12-09T19:01:25.552Z,63.97
2022-12-09T19:03:54.157Z,56.40
2022-12-09T19:06:22.673Z,69.10
2022-12-09T19:08:53.735Z,60.85
2022-12-09T19:11:28.181Z,59.65
2022-12-09T19:13:55.942Z,57.95
2022-12-09T19:16:23.436Z,68.78
2022-12-09T19:18:50.708Z,61.42
2022-12-09T19:21:19.143Z,68.38
2022-12-09T19:23:46.628Z,58.10
2022-12-09T19:26:24.034Z,54.28
2022-12-09T19:28:53.501Z,52.55
2022-12-09T19:31:26.632Z,59.67
2022-12-09T19:33:55.194Z,54.70
2022-12-09T19:36:23.020Z,49.65
2022-12-09T19:38:50.835Z,54.65
2022-12-09T19:41:18.001Z,48.42
2022-12-09T19:43:45.188Z,46.78
2022-12-09T19:46:14.275Z,50.45
2022-12-09T19:48:46.363Z,49.88
2022-12-09T19:51:15.734Z,52.33
2022-12-09T19:53:43.551Z,41.28
2022-12-09T19:56:16.886Z,49.88
2022-12-09T19:58:44.683Z,36.25
2022-12-09T20:01:18.988Z,43.03
2022-12-09T20:03:48.031Z,47.25
2022-12-09T20:06:16.754Z,46.65
2022-12-09T20:08:45.586Z,44.88
2022-12-09T20:11:20.915Z,42.43
2022-12-09T20:13:48.256Z,38.58
2022-12-09T20:16:18.092Z,39.85
2022-12-09T20:18:46.725Z,48.28
2022-12-09T20:21:18.988Z,42.53
2022-12-09T20:23:46.873Z,44.28
2022-12-09T20:26:16.989Z,39.90
2022-12-09T20:28:46.387Z,37.08
2022-12-09T20:31:18.914Z,50.10
2022-12-09T20:33:56.467Z,48.88
2022-12-09T20:36:26.180Z,52.63
2022-12-09T20:38:55.499Z,51.53
2022-12-09T20:41:23.363Z,51.92
2022-12-09T20:43:51.785Z,44.63
2022-12-09T20:46:30.132Z,55.13
2022-12-09T20:48:57.869Z,42.25
2022-12-09T20:51:30.394Z,39.75
2022-12-09T20:54:01.815Z,41.45
2022-12-09T20:56:30.084Z,45.20
2022-12-09T20:58:57.672Z,49.25
2022-12-09T21:01:28.583Z,41.83
2022-12-09T21:03:57.473Z,45.40
2022-12-09T21:06:30.395Z,41.97
2022-12-09T21:09:03.326Z,47.67
2022-12-09T21:11:30.339Z,45.72
2022-12-09T21:14:01.869Z,41.88
2022-12-09T21:16:33.260Z,48.03
2022-12-09T21:19:02.516Z,48.25
2022-12-09T21:21:31.848Z,41.35
2022-12-09T21:24:01.452Z,53.78
2022-12-09T21:26:28.501Z,41.42
2022-12-09T21:28:56.354Z,53.50
2022-12-09T21:31:25.711Z,43.15
2022-12-09T21:33:55.520Z,38.92
2022-12-09T21:36:25.047Z,43.72
2022-12-09T21:38:52.372Z,42.05
2022-12-09T21:41:21.917Z,40.47
2022-12-09T21:43:48.883Z,39.03
2022-12-09T21:46:18.941Z,41.05
2022-12-09T21:48:52.547Z,31.45
2022-12-09T21:51:21.308Z,31.77
2022-12-09T21:53:48.858Z,39.50
2022-12-09T21:56:27.773Z,51.38
2022-12-09T21:58:56.424Z,44.33
2022-12-09T22:01:26.063Z,44.10
2022-12-09T22:03:53.298Z,38.30
2022-12-09T22:06:20.248Z,33.17
2022-12-09T22:08:47.058Z,33.58
2022-12-09T22:11:22.678Z,32.33
2022-12-09T22:13:50.006Z,35.85
2022-12-09T22:16:20.283Z,38.55
2022-12-09T22:18:47.992Z,39.92
2022-12-09T22:21:27.726Z,33.38
2022-12-09T22:23:57.953Z,37.35
2022-12-09T22:26:24.692Z,32.45
2022-12-09T22:28:51.606Z,26.45
2022-12-09T22:31:25.713Z,28.00
2022-12-09T22:33:57.134Z,29.85
2022-12-09T22:36:23.783Z,26.37
2022-12-09T22:38:50.781Z,31.23
2022-12-09T22:41:22.728Z,30.80
2022-12-09T22:43:50.106Z,30.13
2022-12-09T22:46:21.353Z,24.92
2022-12-09T22:48:50.947Z,26.58
2022-12-09T22:51:23.630Z,24.08
2022-12-09T22:53:52.580Z,31.73
2022-12-09T22:56:19.747Z,28.98
2022-12-09T22:58:46.867Z,26.67
2022-12-09T23:01:19.231Z,28.23
2022-12-09T23:03:46.707Z,25.10
2022-12-09T23:06:14.451Z,22.90
2022-12-09T23:08:42.647Z,27.27
2022-12-09T23:11:14.119Z,26.73
2022-12-09T23:13:41.570Z,22.35
2022-12-09T23:16:11.738Z,26.83
2022-12-09T23:18:38.787Z,32.78
2022-12-09T23:21:07.698Z,25.77
2022-12-09T23:23:34.499Z,22.30
2022-12-09T23:26:10.194Z,32.25
2022-12-09T23:28:45.325Z,23.08
2022-12-09T23:31:17.231Z,19.88
2022-12-09T23:33:45.603Z,27.70
2022-12-09T23:36:15.410Z,25.50
2022-12-09T23:38:42.824Z,27.13
2022-12-09T23:41:10.903Z,28.20
2022-12-09T23:43:38.457Z,24.30
2022-12-09T23:46:14.887Z,26.58
2022-12-09T23:48:43.541Z,26.85
2022-12-09T23:51:20.254Z,22.48
2022-12-09T23:53:50.016Z,21.52
2022-12-09T23:56:20.266Z,25.13
2022-12-09T23:58:48.002Z,26.85
